Estación Meteorológica Peña el Pijo (Robertgarden) [ 02/03/23 03:29:51 CET ]

Fecha Hora Presion(HPa) Temp (°C) Humedad % Rocio (°C) Viento ( m/s) Direccion Lluvia 1Hora(mm) Lluvia 24H(mm) LLuvia Total(mm)
2010-Aug-28 01:01:12 1015.200 18.3 51 8.0         152.29
2010-Aug-28 02:01:17 1015.000 17.1 54 7.7         152.29
2010-Aug-28 03:01:12 1014.600 15.9 59 7.9         152.29
2010-Aug-28 04:01:15 1014.300 15.1 61 7.6         152.29
2010-Aug-28 05:01:16 1013.900 14.3 64 7.6         152.29
2010-Aug-28 06:01:14 1013.900 13.3 69 7.7         152.29
2010-Aug-28 07:01:15 1013.800 12.7 70 7.4         152.29
2010-Aug-28 08:01:17 1013.800 12.6 71 7.5         152.29
2010-Aug-28 09:01:13 1014.200 17.8 64 10.9         152.29
2010-Aug-28 10:01:17 1014.100 25.9 48 14.0         152.29
2010-Aug-28 11:01:16 1014.000 31.9 31 12.7         152.29
2010-Aug-28 12:01:14 1014.100 34.8 25 11.6         152.29
2010-Aug-28 13:01:17 1013.900 35.6 24 11.7         152.29
2010-Aug-28 14:01:16 1013.500 37.9 19 10.1         152.29
2010-Aug-28 15:01:17 1012.900 39.3 17 9.2         152.29
2010-Aug-28 16:01:15 1012.400 37.6 20 10.9         152.29
2010-Aug-28 17:01:36 1012.200 35.5 23 11.0         152.29
2010-Aug-28 18:01:33 1012.100 34.2 30 14.2         152.29
2010-Aug-28 19:01:36 1012.300 31.6 38 15.5         152.29
2010-Aug-28 20:01:35 1012.400 28.4 49 16.6         152.29
2010-Aug-28 21:01:17 1012.700 26.4 56 16.9         152.29
2010-Aug-28 22:01:15 1013.700 24.6 66 17.8         152.29
2010-Aug-28 23:01:16 1014.500 22.9 73 17.8         152.29

Temperatura Máxima:39°    Temperatura Mínima:12°
Presión Máxima:1015.200 Hpa    Presión Mínima:1012.100 Hpa


Volver